createdAt,value
2017-12-30T00:00:02.839Z,1.17
2017-12-30T00:00:07.095Z,1.17
2017-12-30T00:00:10.918Z,1.17
2017-12-30T00:00:14.725Z,1.17
2017-12-30T00:00:18.837Z,1.18
2017-12-30T00:00:22.747Z,1.17
2017-12-30T00:00:26.572Z,1.18
2017-12-30T00:00:30.483Z,1.18
2017-12-30T00:00:34.493Z,1.18
2017-12-30T00:00:38.514Z,1.18
2017-12-30T00:00:42.420Z,1.18
2017-12-30T00:00:46.456Z,1.18
2017-12-30T00:00:50.150Z,1.19
2017-12-30T00:00:54.258Z,1.2
2017-12-30T00:00:58.056Z,1.19
2017-12-30T00:01:02.209Z,1.19
2017-12-30T00:01:05.892Z,1.19
2017-12-30T00:01:09.820Z,1.2
2017-12-30T00:01:13.737Z,1.2
2017-12-30T00:01:17.633Z,1.2
2017-12-30T00:01:21.766Z,1.19
2017-12-30T00:01:25.683Z,1.2
2017-12-30T00:01:29.382Z,1.19
2017-12-30T00:01:33.207Z,1.2
2017-12-30T00:01:37.099Z,1.2
2017-12-30T00:01:40.899Z,1.21
2017-12-30T00:01:44.811Z,1.2
2017-12-30T00:01:48.505Z,1.21
2017-12-30T00:01:52.409Z,1.21
2017-12-30T00:01:56.228Z,1.21
2017-12-30T00:02:00.126Z,1.21
2017-12-30T00:02:04.352Z,1.21
2017-12-30T00:02:08.532Z,1.22
2017-12-30T00:02:12.340Z,1.21
2017-12-30T00:02:16.354Z,1.22
2017-12-30T00:02:20.360Z,1.23
2017-12-30T00:02:24.288Z,1.22
2017-12-30T00:02:28.305Z,1.22
2017-12-30T00:02:32.426Z,1.22
2017-12-30T00:02:36.557Z,1.23
2017-12-30T00:02:40.681Z,1.22
2017-12-30T00:02:44.486Z,1.23
2017-12-30T00:02:48.284Z,1.23
2017-12-30T00:02:52.202Z,1.23
2017-12-30T00:02:56.205Z,1.23
2017-12-30T00:03:00.121Z,1.23
2017-12-30T00:03:04.035Z,1.23
2017-12-30T00:03:07.840Z,1.24
2017-12-30T00:03:11.643Z,1.24
2017-12-30T00:03:15.656Z,1.24
2017-12-30T00:03:19.674Z,1.24
2017-12-30T00:03:23.599Z,1.24
2017-12-30T00:03:27.519Z,1.25
2017-12-30T00:03:31.538Z,1.25
2017-12-30T00:03:35.577Z,1.24
2017-12-30T00:03:39.372Z,1.25
2017-12-30T00:03:43.176Z,1.25
2017-12-30T00:03:46.975Z,1.25
2017-12-30T00:03:50.793Z,1.26
2017-12-30T00:03:54.816Z,1.26
2017-12-30T00:03:58.622Z,1.26
2017-12-30T00:04:02.960Z,1.26
2017-12-30T00:04:06.773Z,1.26
2017-12-30T00:04:10.595Z,1.26
2017-12-30T00:04:14.389Z,1.27
2017-12-30T00:04:18.291Z,1.26
2017-12-30T00:04:22.466Z,1.27
2017-12-30T00:04:26.170Z,1.27
2017-12-30T00:04:30.178Z,1.28
2017-12-30T00:04:33.991Z,1.27
2017-12-30T00:04:37.894Z,1.28
2017-12-30T00:04:41.808Z,1.28
2017-12-30T00:04:45.504Z,1.28
2017-12-30T00:04:49.316Z,1.28
2017-12-30T00:04:53.233Z,1.28
2017-12-30T00:04:57.140Z,1.28
2017-12-30T00:05:01.162Z,1.28
2017-12-30T00:05:05.095Z,1.29
2017-12-30T00:05:09.218Z,1.29
2017-12-30T00:05:13.130Z,1.29
2017-12-30T00:05:17.045Z,1.29
2017-12-30T00:05:21.069Z,1.29
2017-12-30T00:05:24.760Z,1.3
2017-12-30T00:05:28.878Z,1.3
2017-12-30T00:05:32.676Z,1.3
2017-12-30T00:05:36.718Z,1.3
2017-12-30T00:05:40.751Z,1.3
2017-12-30T00:05:44.566Z,1.3
2017-12-30T00:05:48.486Z,1.3
2017-12-30T00:05:52.302Z,1.31
2017-12-30T00:05:56.318Z,1.3
2017-12-30T00:06:00.327Z,1.3
2017-12-30T00:06:04.252Z,1.3
2017-12-30T00:06:08.255Z,1.31
2017-12-30T00:06:12.161Z,1.31
2017-12-30T00:06:16.070Z,1.31
2017-12-30T00:06:19.976Z,1.32
2017-12-30T00:06:23.777Z,1.31
2017-12-30T00:06:27.688Z,1.32
2017-12-30T00:06:31.721Z,1.31
2017-12-30T00:06:35.834Z,1.32
2017-12-30T00:06:39.755Z,1.32
2017-12-30T00:06:43.787Z,1.32
2017-12-30T00:06:47.488Z,1.33
2017-12-30T00:06:51.387Z,1.33
2017-12-30T00:06:55.302Z,1.32
2017-12-30T00:06:59.110Z,1.33
2017-12-30T00:07:03.129Z,1.33
2017-12-30T00:07:07.447Z,1.33
2017-12-30T00:07:11.266Z,1.33
2017-12-30T00:07:15.174Z,1.32
2017-12-30T00:07:18.854Z,1.33
2017-12-30T00:07:22.967Z,1.32
2017-12-30T00:07:26.890Z,1.34
2017-12-30T00:07:30.910Z,1.34
2017-12-30T00:07:34.818Z,1.34
2017-12-30T00:07:38.732Z,1.33
2017-12-30T00:07:42.743Z,1.34
2017-12-30T00:07:46.565Z,1.34
2017-12-30T00:07:50.365Z,1.33
2017-12-30T00:07:54.279Z,1.33
2017-12-30T00:07:57.971Z,1.35
2017-12-30T00:08:01.989Z,1.35
2017-12-30T00:08:06.006Z,1.34
2017-12-30T00:08:10.035Z,1.34
2017-12-30T00:08:13.957Z,1.35
2017-12-30T00:08:17.776Z,1.35
2017-12-30T00:08:21.878Z,1.34
2017-12-30T00:08:25.697Z,1.35
2017-12-30T00:08:29.504Z,1.35
2017-12-30T00:08:33.316Z,1.35
2017-12-30T00:08:37.318Z,1.35
2017-12-30T00:08:41.431Z,1.36
2017-12-30T00:08:45.539Z,1.35
2017-12-30T00:08:49.226Z,1.36
2017-12-30T00:08:53.250Z,1.36
2017-12-30T00:08:57.255Z,1.36
2017-12-30T00:09:01.071Z,1.36
2017-12-30T00:09:04.770Z,1.36
2017-12-30T00:09:08.785Z,1.36
2017-12-30T00:09:12.596Z,1.36
2017-12-30T00:09:16.499Z,1.36
2017-12-30T00:09:20.561Z,1.37
2017-12-30T00:09:24.373Z,1.36
2017-12-30T00:09:28.394Z,1.37
2017-12-30T00:09:32.410Z,1.36
2017-12-30T00:09:36.649Z,1.37
2017-12-30T00:09:40.760Z,1.37
2017-12-30T00:09:44.789Z,1.38
2017-12-30T00:09:48.599Z,1.38
2017-12-30T00:09:52.716Z,1.38
2017-12-30T00:09:56.418Z,1.38
2017-12-30T00:10:00.324Z,1.38
2017-12-30T00:10:04.554Z,1.38
2017-12-30T00:10:08.683Z,1.38
2017-12-30T00:10:12.494Z,1.38
2017-12-30T00:10:16.415Z,1.39
2017-12-30T00:10:20.239Z,1.38
2017-12-30T00:10:24.152Z,1.39
2017-12-30T00:10:27.963Z,1.39
2017-12-30T00:10:31.875Z,1.39
2017-12-30T00:10:35.684Z,1.38
2017-12-30T00:10:39.690Z,1.4
2017-12-30T00:10:43.705Z,1.4
2017-12-30T00:10:47.731Z,1.4
2017-12-30T00:10:51.641Z,1.39
2017-12-30T00:10:55.551Z,1.4
2017-12-30T00:10:59.673Z,1.4
2017-12-30T00:11:03.673Z,1.39
2017-12-30T00:11:07.696Z,1.4
2017-12-30T00:11:11.711Z,1.41
2017-12-30T00:11:15.511Z,1.4
2017-12-30T00:11:19.530Z,1.4
2017-12-30T00:11:23.746Z,1.4
2017-12-30T00:11:27.670Z,1.4
2017-12-30T00:11:31.494Z,1.4
2017-12-30T00:11:35.298Z,1.4
2017-12-30T00:11:39.528Z,1.42
2017-12-30T00:11:43.542Z,1.4
2017-12-30T00:11:47.436Z,1.42
2017-12-30T00:11:51.341Z,1.42
2017-12-30T00:11:55.313Z,1.42
2017-12-30T00:11:58.979Z,1.43
2017-12-30T00:12:03.255Z,1.42
2017-12-30T00:12:07.067Z,1.43
2017-12-30T00:12:10.864Z,1.42
2017-12-30T00:12:14.667Z,1.42
2017-12-30T00:12:18.476Z,1.43
2017-12-30T00:12:22.479Z,1.43
2017-12-30T00:12:26.493Z,1.43
2017-12-30T00:12:30.524Z,1.42
2017-12-30T00:12:34.431Z,1.43
2017-12-30T00:12:38.557Z,1.43
2017-12-30T00:12:42.455Z,1.43
2017-12-30T00:12:46.255Z,1.43
2017-12-30T00:12:50.185Z,1.43
2017-12-30T00:12:53.987Z,1.43
2017-12-30T00:12:57.890Z,1.44
2017-12-30T00:13:02.007Z,1.44
2017-12-30T00:13:06.047Z,1.43
2017-12-30T00:13:10.078Z,1.43
2017-12-30T00:13:13.887Z,1.43
2017-12-30T00:13:17.702Z,1.44
2017-12-30T00:13:21.506Z,1.43
2017-12-30T00:13:25.415Z,1.43
2017-12-30T00:13:29.445Z,1.44
2017-12-30T00:13:33.577Z,1.43
2017-12-30T00:13:37.835Z,1.44
2017-12-30T00:13:41.870Z,1.43
2017-12-30T00:13:45.766Z,1.44
2017-12-30T00:13:49.670Z,1.43
2017-12-30T00:13:53.683Z,1.44
2017-12-30T00:13:57.392Z,1.44
2017-12-30T00:14:01.300Z,1.45
2017-12-30T00:14:05.511Z,1.44
2017-12-30T00:14:09.527Z,1.44
2017-12-30T00:14:13.441Z,1.45
2017-12-30T00:14:17.387Z,1.44
2017-12-30T00:14:21.299Z,1.45
2017-12-30T00:14:25.195Z,1.45
2017-12-30T00:14:29.111Z,1.44
2017-12-30T00:14:33.124Z,1.45
2017-12-30T00:14:37.259Z,1.45
2017-12-30T00:14:41.280Z,1.45
2017-12-30T00:14:45.083Z,1.45
2017-12-30T00:14:49.015Z,1.46
2017-12-30T00:14:53.052Z,1.46
2017-12-30T00:14:57.225Z,1.46
2017-12-30T00:15:01.144Z,1.46
2017-12-30T00:15:05.040Z,1.46
2017-12-30T00:15:08.959Z,1.47
2017-12-30T00:15:12.853Z,1.47
2017-12-30T00:15:16.869Z,1.47
2017-12-30T00:15:20.881Z,1.46
2017-12-30T00:15:24.899Z,1.47
2017-12-30T00:15:29.029Z,1.47
2017-12-30T00:15:32.948Z,1.47
2017-12-30T00:15:36.754Z,1.46
2017-12-30T00:15:40.888Z,1.48
2017-12-30T00:15:44.682Z,1.47
2017-12-30T00:15:48.603Z,1.48
2017-12-30T00:15:52.396Z,1.48
2017-12-30T00:15:56.191Z,1.49
2017-12-30T00:15:59.989Z,1.48
2017-12-30T00:16:03.790Z,1.49
2017-12-30T00:16:07.917Z,1.49
2017-12-30T00:16:11.818Z,1.49
2017-12-30T00:16:15.549Z,1.49
2017-12-30T00:16:19.354Z,1.5
2017-12-30T00:16:23.168Z,1.49
2017-12-30T00:16:27.179Z,1.49
2017-12-30T00:16:31.185Z,1.49
2017-12-30T00:16:35.209Z,1.5
2017-12-30T00:16:39.128Z,1.49
2017-12-30T00:16:42.940Z,1.5
2017-12-30T00:16:46.969Z,1.49
2017-12-30T00:16:51.094Z,1.51
2017-12-30T00:16:55.005Z,1.5
2017-12-30T00:16:58.920Z,1.5
2017-12-30T00:17:02.622Z,1.51
2017-12-30T00:17:06.433Z,1.5
2017-12-30T00:17:10.357Z,1.51
2017-12-30T00:17:14.062Z,1.51
2017-12-30T00:17:18.205Z,1.5
2017-12-30T00:17:22.030Z,1.5
2017-12-30T00:17:25.839Z,1.51
2017-12-30T00:17:29.745Z,1.51
2017-12-30T00:17:33.443Z,1.5
2017-12-30T00:17:37.572Z,1.51
2017-12-30T00:17:41.498Z,1.51
2017-12-30T00:17:45.401Z,1.51
2017-12-30T00:17:49.211Z,1.51
2017-12-30T00:17:53.025Z,1.51
2017-12-30T00:17:56.939Z,1.52
2017-12-30T00:18:01.009Z,1.51
2017-12-30T00:18:05.392Z,1.51
2017-12-30T00:18:09.414Z,1.52
2017-12-30T00:18:13.424Z,1.52
2017-12-30T00:18:17.232Z,1.51
2017-12-30T00:18:21.068Z,1.52
2017-12-30T00:18:24.999Z,1.51
2017-12-30T00:18:28.914Z,1.52
2017-12-30T00:18:32.926Z,1.53
2017-12-30T00:18:36.957Z,1.53
2017-12-30T00:18:40.986Z,1.52
2017-12-30T00:18:44.988Z,1.53
2017-12-30T00:18:49.163Z,1.53
2017-12-30T00:18:53.394Z,1.53
2017-12-30T00:18:57.313Z,1.53
2017-12-30T00:19:01.004Z,1.53
2017-12-30T00:19:05.275Z,1.53
2017-12-30T00:19:09.306Z,1.53
2017-12-30T00:19:13.115Z,1.54
2017-12-30T00:19:16.830Z,1.55
2017-12-30T00:19:20.741Z,1.55
2017-12-30T00:19:24.444Z,1.54
2017-12-30T00:19:28.360Z,1.54
2017-12-30T00:19:32.390Z,1.53
2017-12-30T00:19:36.318Z,1.54
2017-12-30T00:19:40.430Z,1.55
2017-12-30T00:19:44.340Z,1.53
2017-12-30T00:19:48.155Z,1.55
2017-12-30T00:19:52.065Z,1.54
2017-12-30T00:19:55.981Z,1.55
2017-12-30T00:19:59.680Z,1.55
2017-12-30T00:20:03.594Z,1.55
2017-12-30T00:20:07.507Z,1.55
2017-12-30T00:20:11.525Z,1.55
2017-12-30T00:20:15.330Z,1.55
2017-12-30T00:20:19.350Z,1.56
2017-12-30T00:20:23.142Z,1.55
2017-12-30T00:20:27.386Z,1.56
2017-12-30T00:20:31.309Z,1.56
2017-12-30T00:20:35.210Z,1.57
2017-12-30T00:20:39.349Z,1.56
2017-12-30T00:20:43.148Z,1.56
2017-12-30T00:20:46.946Z,1.57
2017-12-30T00:20:50.965Z,1.56
2017-12-30T00:20:54.892Z,1.57
2017-12-30T00:20:58.821Z,1.57
2017-12-30T00:21:02.750Z,1.57
2017-12-30T00:21:06.650Z,1.57
2017-12-30T00:21:10.454Z,1.58
2017-12-30T00:21:14.479Z,1.58
2017-12-30T00:21:18.479Z,1.58
2017-12-30T00:21:22.606Z,1.58
2017-12-30T00:21:26.402Z,1.59
2017-12-30T00:21:30.201Z,1.58
2017-12-30T00:21:34.008Z,1.59
2017-12-30T00:21:38.123Z,1.58
2017-12-30T00:21:42.255Z,1.59
2017-12-30T00:21:46.178Z,1.59
2017-12-30T00:21:49.965Z,1.59
2017-12-30T00:21:54.089Z,1.59
2017-12-30T00:21:57.803Z,1.6
2017-12-30T00:22:01.705Z,1.6
2017-12-30T00:22:06.136Z,1.6
2017-12-30T00:22:10.385Z,1.61
2017-12-30T00:22:14.507Z,1.6
2017-12-30T00:22:18.206Z,1.61
2017-12-30T00:22:22.233Z,1.61
2017-12-30T00:22:26.252Z,1.61
2017-12-30T00:22:30.176Z,1.61
2017-12-30T00:22:33.881Z,1.61
2017-12-30T00:22:37.898Z,1.62
2017-12-30T00:22:41.611Z,1.62
2017-12-30T00:22:45.414Z,1.62
2017-12-30T00:22:49.331Z,1.62
2017-12-30T00:22:53.351Z,1.63
2017-12-30T00:22:57.252Z,1.63
2017-12-30T00:23:01.178Z,1.63
2017-12-30T00:23:04.915Z,1.63
2017-12-30T00:23:08.926Z,1.63
2017-12-30T00:23:12.723Z,1.64
2017-12-30T00:23:16.629Z,1.63
2017-12-30T00:23:20.442Z,1.64
2017-12-30T00:23:24.353Z,1.64
2017-12-30T00:23:28.273Z,1.64
2017-12-30T00:23:31.973Z,1.64
2017-12-30T00:23:35.779Z,1.64
2017-12-30T00:23:39.802Z,1.65
2017-12-30T00:23:43.810Z,1.65
2017-12-30T00:23:47.735Z,1.65
2017-12-30T00:23:51.544Z,1.65
2017-12-30T00:23:55.348Z,1.65
2017-12-30T00:23:59.063Z,1.65
2017-12-30T00:24:02.766Z,1.65
2017-12-30T00:24:06.583Z,1.65
2017-12-30T00:24:10.393Z,1.66
2017-12-30T00:24:14.503Z,1.66
2017-12-30T00:24:18.408Z,1.66
2017-12-30T00:24:22.212Z,1.66
2017-12-30T00:24:26.228Z,1.66
2017-12-30T00:24:30.261Z,1.67
2017-12-30T00:24:33.959Z,1.67
2017-12-30T00:24:37.989Z,1.67
2017-12-30T00:24:42.018Z,1.67
2017-12-30T00:24:45.924Z,1.67
2017-12-30T00:24:49.722Z,1.67
2017-12-30T00:24:53.718Z,1.68
2017-12-30T00:24:57.626Z,1.67
2017-12-30T00:25:01.766Z,1.67
2017-12-30T00:25:05.937Z,1.68
2017-12-30T00:25:09.628Z,1.68
2017-12-30T00:25:13.445Z,1.7
2017-12-30T00:25:17.361Z,1.68
2017-12-30T00:25:21.176Z,1.68
2017-12-30T00:25:25.086Z,1.68
2017-12-30T00:25:29.100Z,1.68
2017-12-30T00:25:33.115Z,1.68
2017-12-30T00:25:37.013Z,1.69
2017-12-30T00:25:40.923Z,1.69
2017-12-30T00:25:44.734Z,1.69
2017-12-30T00:25:48.752Z,1.69
2017-12-30T00:25:52.666Z,1.69
2017-12-30T00:25:56.564Z,1.7
2017-12-30T00:26:00.347Z,1.7
2017-12-30T00:26:04.381Z,1.7
2017-12-30T00:26:08.393Z,1.7
2017-12-30T00:26:12.197Z,1.7
2017-12-30T00:26:16.323Z,1.71
2017-12-30T00:26:20.224Z,1.71
2017-12-30T00:26:24.019Z,1.71
2017-12-30T00:26:28.365Z,1.71
2017-12-30T00:26:32.174Z,1.71
2017-12-30T00:26:35.990Z,1.72
2017-12-30T00:26:40.003Z,1.71
2017-12-30T00:26:43.822Z,1.72
2017-12-30T00:26:47.996Z,1.71
2017-12-30T00:26:51.709Z,1.73
2017-12-30T00:26:55.715Z,1.72
2017-12-30T00:26:59.412Z,1.72
2017-12-30T00:27:03.783Z,1.72
2017-12-30T00:27:07.798Z,1.73
2017-12-30T00:27:11.503Z,1.73
2017-12-30T00:27:15.299Z,1.73
2017-12-30T00:27:19.216Z,1.73
2017-12-30T00:27:23.140Z,1.73
2017-12-30T00:27:27.275Z,1.74
2017-12-30T00:27:31.081Z,1.73
2017-12-30T00:27:35.001Z,1.73
2017-12-30T00:27:38.894Z,1.73
2017-12-30T00:27:42.712Z,1.74
2017-12-30T00:27:46.723Z,1.74
2017-12-30T00:27:50.553Z,1.75
2017-12-30T00:27:54.448Z,1.74
2017-12-30T00:27:58.252Z,1.74
2017-12-30T00:28:02.361Z,1.75
2017-12-30T00:28:06.265Z,1.75
2017-12-30T00:28:10.080Z,1.75
2017-12-30T00:28:13.989Z,1.75
2017-12-30T00:28:18.014Z,1.75
2017-12-30T00:28:21.830Z,1.75
2017-12-30T00:28:25.738Z,1.75
2017-12-30T00:28:29.550Z,1.75
2017-12-30T00:28:33.474Z,1.75
2017-12-30T00:28:37.397Z,1.76
2017-12-30T00:28:41.540Z,1.76
2017-12-30T00:28:45.552Z,1.76
2017-12-30T00:28:49.458Z,1.75
2017-12-30T00:28:53.476Z,1.77
2017-12-30T00:28:57.182Z,1.77
2017-12-30T00:29:01.088Z,1.76
2017-12-30T00:29:05.190Z,1.77
2017-12-30T00:29:09.000Z,1.76
2017-12-30T00:29:13.016Z,1.77
2017-12-30T00:29:17.025Z,1.78
2017-12-30T00:29:20.820Z,1.78
2017-12-30T00:29:24.522Z,1.77
2017-12-30T00:29:28.226Z,1.78
2017-12-30T00:29:32.023Z,1.77
2017-12-30T00:29:35.817Z,1.78
2017-12-30T00:29:39.851Z,1.78
2017-12-30T00:29:43.970Z,1.78
2017-12-30T00:29:47.982Z,1.77
2017-12-30T00:29:51.786Z,1.78
2017-12-30T00:29:55.692Z,1.78
2017-12-30T00:29:59.699Z,1.78
2017-12-30T00:30:03.610Z,1.79
2017-12-30T00:30:07.531Z,1.78
2017-12-30T00:30:11.335Z,1.79
2017-12-30T00:30:15.329Z,1.79
2017-12-30T00:30:19.246Z,1.79
2017-12-30T00:30:23.153Z,1.79
2017-12-30T00:30:26.969Z,1.8
2017-12-30T00:30:31.099Z,1.79
2017-12-30T00:30:35.110Z,1.79
2017-12-30T00:30:39.023Z,1.8
2017-12-30T00:30:43.047Z,1.79
2017-12-30T00:30:46.860Z,1.79
2017-12-30T00:30:50.769Z,1.8
2017-12-30T00:30:54.501Z,1.8
2017-12-30T00:30:58.406Z,1.8
2017-12-30T00:31:02.678Z,1.8
2017-12-30T00:31:06.717Z,1.8
2017-12-30T00:31:10.399Z,1.8
2017-12-30T00:31:14.194Z,1.81
2017-12-30T00:31:18.104Z,1.8
2017-12-30T00:31:21.798Z,1.8
2017-12-30T00:31:25.615Z,1.81
2017-12-30T00:31:29.417Z,1.81
2017-12-30T00:31:33.421Z,1.8
2017-12-30T00:31:37.654Z,1.8
2017-12-30T00:31:41.671Z,1.81
2017-12-30T00:31:45.685Z,1.8
2017-12-30T00:31:49.601Z,1.81
2017-12-30T00:31:53.613Z,1.81
2017-12-30T00:31:57.522Z,1.81
2017-12-30T00:32:01.440Z,1.82
2017-12-30T00:32:05.347Z,1.81
2017-12-30T00:32:09.258Z,1.81
2017-12-30T00:32:13.170Z,1.82
2017-12-30T00:32:17.076Z,1.82
2017-12-30T00:32:20.872Z,1.82
2017-12-30T00:32:24.794Z,1.83
2017-12-30T00:32:28.744Z,1.82
2017-12-30T00:32:32.980Z,1.82
2017-12-30T00:32:36.773Z,1.82
2017-12-30T00:32:40.781Z,1.83
2017-12-30T00:32:44.587Z,1.83
2017-12-30T00:32:48.389Z,1.82
2017-12-30T00:32:52.415Z,1.83
2017-12-30T00:32:56.330Z,1.84
2017-12-30T00:33:00.233Z,1.83
2017-12-30T00:33:04.250Z,1.83
2017-12-30T00:33:08.048Z,1.84
2017-12-30T00:33:11.973Z,1.84
2017-12-30T00:33:15.888Z,1.84
2017-12-30T00:33:19.576Z,1.83
2017-12-30T00:33:23.805Z,1.84
2017-12-30T00:33:27.618Z,1.84
2017-12-30T00:33:31.545Z,1.84
2017-12-30T00:33:35.567Z,1.85
2017-12-30T00:33:39.583Z,1.86
2017-12-30T00:33:43.808Z,1.85
2017-12-30T00:33:47.508Z,1.85
2017-12-30T00:33:51.218Z,1.85
2017-12-30T00:33:55.338Z,1.86
2017-12-30T00:33:59.039Z,1.85
2017-12-30T00:34:02.991Z,1.86
2017-12-30T00:34:06.804Z,1.85
2017-12-30T00:34:10.837Z,1.84
2017-12-30T00:34:14.760Z,1.85
2017-12-30T00:34:18.570Z,1.86
2017-12-30T00:34:22.388Z,1.85
2017-12-30T00:34:26.192Z,1.87
2017-12-30T00:34:29.993Z,1.86
2017-12-30T00:34:33.799Z,1.86
2017-12-30T00:34:37.722Z,1.86
2017-12-30T00:34:41.841Z,1.86
2017-12-30T00:34:45.534Z,1.87
2017-12-30T00:34:49.351Z,1.87
2017-12-30T00:34:53.363Z,1.87
2017-12-30T00:34:57.381Z,1.87
2017-12-30T00:35:01.415Z,1.87
2017-12-30T00:35:05.391Z,1.87
2017-12-30T00:35:09.303Z,1.86
2017-12-30T00:35:13.204Z,1.86
2017-12-30T00:35:17.020Z,1.86
2017-12-30T00:35:20.939Z,1.87
2017-12-30T00:35:24.956Z,1.87
2017-12-30T00:35:29.069Z,1.87
2017-12-30T00:35:32.877Z,1.88
2017-12-30T00:35:36.670Z,1.88
2017-12-30T00:35:40.781Z,1.88
2017-12-30T00:35:44.606Z,1.87
2017-12-30T00:35:48.729Z,1.88
2017-12-30T00:35:52.632Z,1.88
2017-12-30T00:35:56.536Z,1.87
2017-12-30T00:36:00.240Z,1.87
2017-12-30T00:36:04.252Z,1.87
2017-12-30T00:36:08.164Z,1.88
2017-12-30T00:36:11.979Z,1.87
2017-12-30T00:36:15.775Z,1.87
2017-12-30T00:36:19.576Z,1.87
2017-12-30T00:36:23.280Z,1.87
2017-12-30T00:36:27.085Z,1.88
2017-12-30T00:36:30.899Z,1.87
2017-12-30T00:36:34.815Z,1.88
2017-12-30T00:36:38.944Z,1.87
2017-12-30T00:36:42.973Z,1.87
2017-12-30T00:36:46.874Z,1.87
2017-12-30T00:36:50.796Z,1.87
2017-12-30T00:36:54.806Z,1.86
2017-12-30T00:36:58.737Z,1.86
2017-12-30T00:37:02.648Z,1.87
2017-12-30T00:37:06.671Z,1.87
2017-12-30T00:37:10.700Z,1.86
2017-12-30T00:37:14.699Z,1.86
2017-12-30T00:37:18.606Z,1.86
2017-12-30T00:37:22.423Z,1.86
2017-12-30T00:37:26.229Z,1.86
2017-12-30T00:37:30.354Z,1.87
2017-12-30T00:37:34.070Z,1.86
2017-12-30T00:37:38.203Z,1.85
2017-12-30T00:37:42.342Z,1.86
2017-12-30T00:37:46.030Z,1.86
2017-12-30T00:37:49.734Z,1.86
2017-12-30T00:37:53.758Z,1.86
2017-12-30T00:37:57.551Z,1.86
2017-12-30T00:38:01.767Z,1.86
2017-12-30T00:38:06.095Z,1.86
2017-12-30T00:38:09.883Z,1.86
2017-12-30T00:38:13.679Z,1.85
2017-12-30T00:38:17.700Z,1.85
2017-12-30T00:38:21.619Z,1.86
2017-12-30T00:38:25.747Z,1.86
2017-12-30T00:38:29.660Z,1.85
2017-12-30T00:38:33.898Z,1.86
2017-12-30T00:38:37.904Z,1.85
2017-12-30T00:38:41.937Z,1.86
2017-12-30T00:38:46.058Z,1.85
2017-12-30T00:38:50.083Z,1.86
2017-12-30T00:38:54.086Z,1.86
2017-12-30T00:38:57.981Z,1.86
2017-12-30T00:39:01.902Z,1.86
2017-12-30T00:39:05.822Z,1.86
2017-12-30T00:39:09.730Z,1.85
2017-12-30T00:39:13.734Z,1.86
2017-12-30T00:39:17.525Z,1.86
2017-12-30T00:39:21.435Z,1.86
2017-12-30T00:39:25.567Z,1.85
2017-12-30T00:39:29.386Z,1.85
2017-12-30T00:39:33.202Z,1.85
2017-12-30T00:39:37.128Z,1.86
2017-12-30T00:39:41.243Z,1.85
2017-12-30T00:39:45.255Z,1.86
2017-12-30T00:39:49.080Z,1.86
2017-12-30T00:39:52.994Z,1.86
2017-12-30T00:39:56.907Z,1.85
2017-12-30T00:40:00.629Z,1.85
2017-12-30T00:40:04.887Z,1.85
2017-12-30T00:40:09.015Z,1.85
2017-12-30T00:40:12.829Z,1.86
2017-12-30T00:40:16.957Z,1.85
2017-12-30T00:40:20.652Z,1.85
2017-12-30T00:40:24.567Z,1.85
2017-12-30T00:40:28.377Z,1.85
2017-12-30T00:40:32.172Z,1.85
2017-12-30T00:40:35.981Z,1.85
2017-12-30T00:40:40.221Z,1.85
2017-12-30T00:40:44.222Z,1.85
2017-12-30T00:40:48.141Z,1.85
2017-12-30T00:40:52.073Z,1.85
2017-12-30T00:40:56.035Z,1.85
2017-12-30T00:41:00.102Z,1.85
2017-12-30T00:41:04.538Z,1.85
2017-12-30T00:41:08.448Z,1.85
2017-12-30T00:41:12.148Z,1.85
2017-12-30T00:41:16.061Z,1.84
2017-12-30T00:41:19.965Z,1.84
2017-12-30T00:41:23.669Z,1.84
2017-12-30T00:41:27.592Z,1.85
2017-12-30T00:41:31.518Z,1.85
2017-12-30T00:41:35.559Z,1.85
2017-12-30T00:41:39.570Z,1.84
2017-12-30T00:41:43.476Z,1.84
2017-12-30T00:41:47.399Z,1.84
2017-12-30T00:41:51.473Z,1.84
2017-12-30T00:41:55.404Z,1.84
2017-12-30T00:41:59.311Z,1.85
2017-12-30T00:42:03.525Z,1.85
2017-12-30T00:42:07.423Z,1.84
2017-12-30T00:42:11.219Z,1.84
2017-12-30T00:42:15.133Z,1.85
2017-12-30T00:42:18.931Z,1.84
2017-12-30T00:42:22.948Z,1.84
2017-12-30T00:42:26.851Z,1.85
2017-12-30T00:42:30.749Z,1.84
2017-12-30T00:42:34.552Z,1.83
2017-12-30T00:42:38.764Z,1.84
2017-12-30T00:42:42.566Z,1.84
2017-12-30T00:42:46.472Z,1.84
2017-12-30T00:42:50.268Z,1.85
2017-12-30T00:42:54.384Z,1.84
2017-12-30T00:42:58.298Z,1.85
2017-12-30T00:43:02.426Z,1.84
2017-12-30T00:43:06.239Z,1.85
2017-12-30T00:43:10.270Z,1.85
2017-12-30T00:43:14.171Z,1.85
2017-12-30T00:43:18.073Z,1.84
2017-12-30T00:43:22.083Z,1.84
2017-12-30T00:43:25.915Z,1.84
2017-12-30T00:43:29.831Z,1.85
2017-12-30T00:43:33.730Z,1.84
2017-12-30T00:43:37.552Z,1.84
2017-12-30T00:43:41.780Z,1.85
2017-12-30T00:43:45.911Z,1.84
2017-12-30T00:43:49.615Z,1.84
2017-12-30T00:43:53.327Z,1.84
2017-12-30T00:43:57.142Z,1.83
2017-12-30T00:44:00.939Z,1.84
2017-12-30T00:44:05.052Z,1.84
2017-12-30T00:44:08.980Z,1.84
2017-12-30T00:44:12.906Z,1.84
2017-12-30T00:44:17.081Z,1.84
2017-12-30T00:44:20.779Z,1.84
2017-12-30T00:44:24.711Z,1.85
2017-12-30T00:44:28.407Z,1.84
2017-12-30T00:44:32.199Z,1.84
2017-12-30T00:44:36.115Z,1.84
2017-12-30T00:44:40.157Z,1.83
2017-12-30T00:44:44.177Z,1.84
2017-12-30T00:44:47.990Z,1.84
2017-12-30T00:44:52.232Z,1.84
2017-12-30T00:44:56.282Z,1.84
2017-12-30T00:45:00.201Z,1.83
2017-12-30T00:45:04.211Z,1.84
2017-12-30T00:45:08.129Z,1.84
2017-12-30T00:45:11.929Z,1.83
2017-12-30T00:45:15.947Z,1.84
2017-12-30T00:45:19.857Z,1.84
2017-12-30T00:45:23.867Z,1.84
2017-12-30T00:45:27.674Z,1.83
2017-12-30T00:45:31.696Z,1.83
2017-12-30T00:45:35.614Z,1.83
2017-12-30T00:45:39.524Z,1.84
2017-12-30T00:45:43.430Z,1.83
2017-12-30T00:45:47.229Z,1.83
2017-12-30T00:45:51.046Z,1.83
2017-12-30T00:45:55.065Z,1.84
2017-12-30T00:45:58.991Z,1.84
2017-12-30T00:46:03.207Z,1.83
2017-12-30T00:46:07.025Z,1.83
2017-12-30T00:46:11.025Z,1.83
2017-12-30T00:46:15.148Z,1.84
2017-12-30T00:46:19.074Z,1.84
2017-12-30T00:46:22.993Z,1.83
2017-12-30T00:46:26.705Z,1.84
2017-12-30T00:46:30.533Z,1.83
2017-12-30T00:46:34.349Z,1.83
2017-12-30T00:46:38.488Z,1.83
2017-12-30T00:46:42.295Z,1.85
2017-12-30T00:46:45.995Z,1.84
2017-12-30T00:46:49.794Z,1.83
2017-12-30T00:46:53.721Z,1.83
2017-12-30T00:46:57.749Z,1.84
2017-12-30T00:47:01.906Z,1.83
2017-12-30T00:47:06.025Z,1.83
2017-12-30T00:47:10.040Z,1.83
2017-12-30T00:47:14.170Z,1.83
2017-12-30T00:47:18.184Z,1.84
2017-12-30T00:47:22.076Z,1.83
2017-12-30T00:47:25.891Z,1.84
2017-12-30T00:47:29.808Z,1.84
2017-12-30T00:47:33.824Z,1.84
2017-12-30T00:47:37.929Z,1.85
2017-12-30T00:47:42.153Z,1.84
2017-12-30T00:47:45.945Z,1.84
2017-12-30T00:47:49.985Z,1.84
2017-12-30T00:47:53.695Z,1.83
2017-12-30T00:47:57.819Z,1.83
2017-12-30T00:48:01.716Z,1.84
2017-12-30T00:48:05.509Z,1.84
2017-12-30T00:48:09.856Z,1.84
2017-12-30T00:48:13.869Z,1.84
2017-12-30T00:48:17.778Z,1.85
2017-12-30T00:48:21.677Z,1.84
2017-12-30T00:48:25.596Z,1.84
2017-12-30T00:48:29.305Z,1.84
2017-12-30T00:48:33.122Z,1.85
2017-12-30T00:48:36.830Z,1.85
2017-12-30T00:48:40.742Z,1.84
2017-12-30T00:48:44.561Z,1.85
2017-12-30T00:48:48.375Z,1.84
2017-12-30T00:48:52.393Z,1.84
2017-12-30T00:48:56.186Z,1.84
2017-12-30T00:49:00.114Z,1.84
2017-12-30T00:49:04.251Z,1.85
2017-12-30T00:49:08.163Z,1.84
2017-12-30T00:49:11.980Z,1.85
2017-12-30T00:49:15.990Z,1.85
2017-12-30T00:49:20.129Z,1.85
2017-12-30T00:49:23.926Z,1.85
2017-12-30T00:49:28.063Z,1.84
2017-12-30T00:49:31.759Z,1.85
2017-12-30T00:49:35.574Z,1.85
2017-12-30T00:49:39.597Z,1.86
2017-12-30T00:49:43.514Z,1.85
2017-12-30T00:49:47.535Z,1.85
2017-12-30T00:49:51.549Z,1.85
2017-12-30T00:49:55.458Z,1.85
2017-12-30T00:49:59.384Z,1.85
2017-12-30T00:50:03.445Z,1.85
2017-12-30T00:50:07.263Z,1.85
2017-12-30T00:50:11.063Z,1.85
2017-12-30T00:50:15.181Z,1.85
2017-12-30T00:50:19.091Z,1.85
2017-12-30T00:50:23.116Z,1.86
2017-12-30T00:50:27.248Z,1.85
2017-12-30T00:50:31.270Z,1.85
2017-12-30T00:50:35.316Z,1.86
2017-12-30T00:50:39.544Z,1.86
2017-12-30T00:50:43.443Z,1.86
2017-12-30T00:50:47.352Z,1.86
2017-12-30T00:50:51.356Z,1.86
2017-12-30T00:50:55.259Z,1.87
2017-12-30T00:50:58.949Z,1.85
2017-12-30T00:51:02.995Z,1.87
2017-12-30T00:51:07.121Z,1.86
2017-12-30T00:51:10.934Z,1.86
2017-12-30T00:51:14.734Z,1.86
2017-12-30T00:51:18.756Z,1.87
2017-12-30T00:51:22.793Z,1.86
2017-12-30T00:51:26.499Z,1.86
2017-12-30T00:51:30.310Z,1.87
2017-12-30T00:51:34.349Z,1.87
2017-12-30T00:51:38.375Z,1.88
2017-12-30T00:51:42.291Z,1.87
2017-12-30T00:51:46.203Z,1.88
2017-12-30T00:51:50.115Z,1.87
2017-12-30T00:51:53.921Z,1.88
2017-12-30T00:51:57.832Z,1.88
2017-12-30T00:52:01.848Z,1.88
2017-12-30T00:52:05.775Z,1.88
2017-12-30T00:52:09.478Z,1.89
2017-12-30T00:52:13.510Z,1.88
2017-12-30T00:52:17.929Z,1.88
2017-12-30T00:52:21.963Z,1.89
2017-12-30T00:52:25.767Z,1.88
2017-12-30T00:52:29.566Z,1.9